createdAt,value
2023-02-05T01:05:59.453Z,60.12
2023-02-05T01:08:45.069Z,60.56
2023-02-05T01:11:30.819Z,60.61
2023-02-05T01:14:16.148Z,59.86
2023-02-05T01:17:01.588Z,59.79
2023-02-05T01:19:47.026Z,59.93
2023-02-05T01:22:32.540Z,59.73
2023-02-05T01:25:18.037Z,60.24
2023-02-05T01:28:03.917Z,59.22
2023-02-05T01:30:50.014Z,59.16
2023-02-05T01:33:35.241Z,59.68
2023-02-05T01:36:20.720Z,59.95
2023-02-05T01:39:05.908Z,59.18
2023-02-05T01:41:51.198Z,59.70
2023-02-05T01:44:37.105Z,60.35
2023-02-05T01:47:22.645Z,60.83
2023-02-05T01:50:07.954Z,60.27
2023-02-05T01:52:54.896Z,61.17
2023-02-05T01:56:00.014Z,61.01
2023-02-05T01:58:53.985Z,61.29
2023-02-05T02:01:40.901Z,61.08
2023-02-05T02:04:45.273Z,62.08
2023-02-05T02:07:30.672Z,61.71
2023-02-05T02:10:18.922Z,61.92
2023-02-05T02:13:04.374Z,61.45
2023-02-05T02:15:50.526Z,61.60
2023-02-05T02:18:38.081Z,62.22
2023-02-05T02:21:42.373Z,62.88
2023-02-05T02:25:20.267Z,63.18
2023-02-05T02:28:27.420Z,63.20
2023-02-05T02:31:29.246Z,63.24
2023-02-05T02:34:20.930Z,62.99
2023-02-05T02:37:10.377Z,63.47
2023-02-05T02:40:10.028Z,63.45
2023-02-05T02:43:08.849Z,64.13
2023-02-05T02:46:06.807Z,64.14
2023-02-05T02:48:57.313Z,64.71
2023-02-05T02:51:44.797Z,64.72
2023-02-05T02:54:32.112Z,65.35
2023-02-05T02:57:19.446Z,65.00
2023-02-05T03:00:11.498Z,64.64
2023-02-05T03:03:05.091Z,64.52
2023-02-05T03:05:52.804Z,64.63
2023-02-05T03:08:52.562Z,64.45
2023-02-05T03:11:37.746Z,64.51
2023-02-05T03:14:23.673Z,64.95
2023-02-05T03:17:09.978Z,64.81
2023-02-05T03:20:08.094Z,64.44
2023-02-05T03:22:54.812Z,64.25
2023-02-05T03:25:40.153Z,64.48
2023-02-05T03:28:27.728Z,64.34
2023-02-05T03:31:20.830Z,64.39
2023-02-05T03:34:20.639Z,64.61
2023-02-05T03:37:25.034Z,64.86
2023-02-05T03:40:26.302Z,64.36
2023-02-05T03:43:25.491Z,64.72
2023-02-05T03:46:30.596Z,64.42
2023-02-05T03:49:29.507Z,64.83
2023-02-05T03:52:27.113Z,65.36
2023-02-05T03:55:23.533Z,65.30
2023-02-05T03:58:18.402Z,65.26
2023-02-05T04:01:05.846Z,65.00
2023-02-05T04:03:51.829Z,64.68
2023-02-05T04:06:37.457Z,64.67
2023-02-05T04:09:23.093Z,64.00
2023-02-05T04:12:10.033Z,64.93
2023-02-05T04:14:57.125Z,64.56
2023-02-05T04:17:42.604Z,64.02
2023-02-05T04:20:28.626Z,63.91
2023-02-05T04:23:13.781Z,64.03
2023-02-05T04:26:00.797Z,64.41
2023-02-05T04:28:54.482Z,64.48
2023-02-05T04:31:39.835Z,64.34
2023-02-05T04:34:25.180Z,63.69
2023-02-05T04:37:10.632Z,63.91
2023-02-05T04:39:55.930Z,64.66
2023-02-05T04:42:41.247Z,64.02
2023-02-05T04:45:30.818Z,63.95
2023-02-05T04:48:15.964Z,63.42
2023-02-05T04:51:06.343Z,63.44
2023-02-05T04:53:51.636Z,63.85
2023-02-05T04:56:36.763Z,63.79
2023-02-05T04:59:22.387Z,63.29
2023-02-05T05:02:07.879Z,63.09
2023-02-05T05:04:53.002Z,63.17
2023-02-05T05:07:38.770Z,63.29
2023-02-05T05:10:24.106Z,63.43
2023-02-05T05:13:09.218Z,63.36
2023-02-05T05:15:56.400Z,63.13
2023-02-05T05:18:41.929Z,62.99
2023-02-05T05:21:27.391Z,62.53
2023-02-05T05:24:12.701Z,62.86
2023-02-05T05:26:59.718Z,62.72
2023-02-05T05:29:46.453Z,63.30
2023-02-05T05:32:31.880Z,63.51
2023-02-05T05:35:17.178Z,63.45
2023-02-05T05:38:02.475Z,63.44
2023-02-05T05:41:06.384Z,63.39
2023-02-05T05:43:55.076Z,63.78
2023-02-05T05:46:40.435Z,63.76
2023-02-05T05:49:25.766Z,63.09
2023-02-05T05:52:11.320Z,62.39
2023-02-05T05:54:56.747Z,62.32
2023-02-05T05:57:42.218Z,62.26
2023-02-05T06:00:27.368Z,62.76
2023-02-05T06:03:12.996Z,62.64
2023-02-05T06:06:07.501Z,63.30
2023-02-05T06:08:52.990Z,63.72
2023-02-05T06:11:38.952Z,63.61
2023-02-05T06:14:24.165Z,63.70
2023-02-05T06:17:09.547Z,63.75
2023-02-05T06:19:54.574Z,63.80
2023-02-05T06:22:40.925Z,63.29
2023-02-05T06:25:26.378Z,63.96
2023-02-05T06:28:11.831Z,63.90
2023-02-05T06:30:57.528Z,63.95
2023-02-05T06:33:43.795Z,64.90
2023-02-05T06:36:29.122Z,64.69
2023-02-05T06:39:14.539Z,64.12
2023-02-05T06:41:59.728Z,63.94
2023-02-05T06:44:45.078Z,64.02
2023-02-05T06:47:30.623Z,63.41
2023-02-05T06:50:16.420Z,62.72
2023-02-05T06:53:01.986Z,62.88
2023-02-05T06:55:47.100Z,63.36
2023-02-05T06:58:32.677Z,63.40
2023-02-05T07:01:18.426Z,62.64
2023-02-05T07:04:04.019Z,62.72
2023-02-05T07:06:49.206Z,61.71
2023-02-05T07:09:34.498Z,62.12
2023-02-05T07:12:20.116Z,61.35
2023-02-05T07:15:06.189Z,61.91
2023-02-05T07:17:51.430Z,61.70
2023-02-05T07:20:36.862Z,61.77
2023-02-05T07:23:22.300Z,61.79
2023-02-05T07:26:13.737Z,61.43
2023-02-05T07:28:58.881Z,61.26
2023-02-05T07:31:44.363Z,61.78
2023-02-05T07:34:29.697Z,61.85
2023-02-05T07:37:14.841Z,61.85
2023-02-05T07:40:00.238Z,61.98
2023-02-05T07:42:45.595Z,61.75
2023-02-05T07:45:31.459Z,60.87
2023-02-05T07:48:16.793Z,61.04
2023-02-05T07:51:02.439Z,61.14
2023-02-05T07:53:48.465Z,60.99
2023-02-05T07:56:33.752Z,60.91
2023-02-05T07:59:19.254Z,60.72
2023-02-05T08:02:04.526Z,60.98
2023-02-05T08:04:49.858Z,61.15
2023-02-05T08:07:37.268Z,61.69
2023-02-05T08:10:22.797Z,61.34
2023-02-05T08:13:07.948Z,61.60
2023-02-05T08:15:53.562Z,61.71
2023-02-05T08:18:38.757Z,62.10
2023-02-05T08:21:24.730Z,61.46
2023-02-05T08:24:10.610Z,61.73
2023-02-05T08:26:56.011Z,61.73
2023-02-05T08:29:41.253Z,61.53
2023-02-05T08:32:26.628Z,60.49
2023-02-05T08:35:11.889Z,60.16
2023-02-05T08:37:57.951Z,59.82
2023-02-05T08:40:43.132Z,59.12
2023-02-05T08:43:28.632Z,59.12
2023-02-05T08:46:19.158Z,59.49
2023-02-05T08:49:04.463Z,58.93
2023-02-05T08:51:49.756Z,59.14
2023-02-05T08:54:34.764Z,58.85
2023-02-05T08:57:20.327Z,58.85
2023-02-05T09:00:06.009Z,58.66
2023-02-05T09:02:51.150Z,58.57
2023-02-05T09:05:38.894Z,58.30
2023-02-05T09:08:25.529Z,58.84
2023-02-05T09:11:13.392Z,58.74
2023-02-05T09:13:59.119Z,58.69
2023-02-05T09:16:45.604Z,58.58
2023-02-05T09:19:34.577Z,58.47
2023-02-05T09:22:20.772Z,57.81
2023-02-05T09:25:06.971Z,57.68
2023-02-05T09:27:52.078Z,57.12
2023-02-05T09:30:41.409Z,56.98
2023-02-05T09:33:26.728Z,56.30
2023-02-05T09:36:21.841Z,56.98
2023-02-05T09:39:15.218Z,57.21
2023-02-05T09:42:24.492Z,56.83
2023-02-05T09:45:37.906Z,57.25
2023-02-05T09:48:32.805Z,56.73
2023-02-05T09:51:37.408Z,70.91
2023-02-05T09:54:26.998Z,68.50
2023-02-05T09:57:17.940Z,58.18
2023-02-05T10:00:28.198Z,58.00
2023-02-05T10:03:43.005Z,56.97
2023-02-05T10:06:49.884Z,56.83
2023-02-05T10:10:07.204Z,56.73
2023-02-05T10:13:20.169Z,55.46
2023-02-05T10:16:32.985Z,54.92
2023-02-05T10:19:46.625Z,55.05
2023-02-05T10:22:46.982Z,54.52
2023-02-05T10:25:54.134Z,53.74
2023-02-05T10:28:55.272Z,53.99
2023-02-05T10:32:12.207Z,53.89
2023-02-05T10:35:08.316Z,53.57
2023-02-05T10:37:57.648Z,54.13
2023-02-05T10:40:46.958Z,53.91
2023-02-05T10:43:45.163Z,54.17
2023-02-05T10:46:37.009Z,54.55
2023-02-05T10:49:35.223Z,54.15
2023-02-05T10:52:20.333Z,54.44
2023-02-05T10:55:05.871Z,54.37
2023-02-05T10:57:51.122Z,54.79
2023-02-05T11:00:36.911Z,54.53
2023-02-05T11:03:22.759Z,55.17
2023-02-05T11:06:11.274Z,54.31
2023-02-05T11:08:56.913Z,54.41
2023-02-05T11:11:42.163Z,54.61
2023-02-05T11:14:32.648Z,54.53
2023-02-05T11:17:21.092Z,54.28
2023-02-05T11:20:24.323Z,54.10
2023-02-05T11:23:21.885Z,53.16
2023-02-05T11:26:22.119Z,53.01
2023-02-05T11:29:20.805Z,53.84
2023-02-05T11:32:19.307Z,53.43
2023-02-05T11:35:18.037Z,54.07
2023-02-05T11:38:09.809Z,53.07
2023-02-05T11:40:57.937Z,52.76
2023-02-05T11:43:50.848Z,52.84
2023-02-05T11:46:44.344Z,53.26
2023-02-05T11:49:34.884Z,53.52
2023-02-05T11:52:27.301Z,53.26
2023-02-05T11:55:26.471Z,52.87
2023-02-05T11:58:36.218Z,52.53
2023-02-05T12:01:24.433Z,52.75
2023-02-05T12:04:12.621Z,53.45
2023-02-05T12:07:06.468Z,52.94
2023-02-05T12:09:58.829Z,52.99
2023-02-05T12:12:58.533Z,53.55
2023-02-05T12:15:58.364Z,53.31
2023-02-05T12:19:11.323Z,52.80
2023-02-05T12:22:07.297Z,53.28
2023-02-05T12:25:19.509Z,52.97
2023-02-05T12:28:14.270Z,52.95
2023-02-05T12:31:19.558Z,53.02
2023-02-05T12:34:39.049Z,53.16
2023-02-05T12:37:27.611Z,52.14
2023-02-05T12:40:32.845Z,52.30
2023-02-05T12:43:39.167Z,52.16
2023-02-05T12:46:36.021Z,52.61
2023-02-05T12:49:35.250Z,52.34
2023-02-05T12:52:45.097Z,52.36
2023-02-05T12:56:14.104Z,51.85
2023-02-05T12:59:05.260Z,51.17
2023-02-05T13:01:59.807Z,51.12
2023-02-05T13:05:10.153Z,51.00
2023-02-05T13:07:59.683Z,51.23
2023-02-05T13:11:09.084Z,50.82
2023-02-05T13:14:13.929Z,51.01
2023-02-05T13:17:15.615Z,51.39
2023-02-05T13:20:05.182Z,51.75
2023-02-05T13:23:15.497Z,52.26
2023-02-05T13:26:08.513Z,52.07
